Aérodrome :
LOGIN :

S'inscrire | Disclaimer

   EN    FR    IT 

 










Légende :    VFR   VFR Marginal   IFR   IFR Intensif   IFR Très Intensif
Visi : 
Plafond : 
>= 8 km
>= 3000ft
5 à 8 km
1000 à 3000 ft
1500m à 5 km
500 à 1000 ft
800 à 1500m
200 à 500 ft
< 800m
< 200 ft
Symboles :   Orages  Brouillard  Fortes neiges  Fortes précipitations  Vent > 20 kt
SIGMETs :   Divers  Orages  Givrage  Turbulence  Onde Orograph.  Cendres Volcan.






- Altitude de l'aérodrome : 19 ft
- Code IATA : LCY


EGLC - London City

DERNIER METAR :
  • 121350Z 17010KT 140V220 8000 -RA BKN010 OVC025 09/08 Q0984 RERA REDZ

METARs EXPIRÉS :
  • 121320Z 17010KT 130V200 4300 RADZ BKN010 OVC026 09/08 Q0985
  • 121250Z 18011KT 150V210 4000 RADZ BKN009 OVC022 09/07 Q0986
  • 121220Z AUTO 17012KT 140V210 6000 -RA BKN010 OVC022 09/07 Q0987 RERA REDZ
  • 121150Z AUTO 16012KT 4200 -RADZ BKN011 BKN017 OVC044 08/07 Q0988
  • 121120Z AUTO 15011KT 120V200 9999 -RA BKN013/// //////CB 08/06 Q0990

TAF TAF EGLC
Valide du 12 à 12h jusqu'au 12 à 21h UTC


121058Z 1212/1221 16015KT 9999 BKN025
TEMPO 1212/1217 8000 RA BKN012
PROB40
TEMPO 1212/1217 15018G28KT 4000 RADZ BKN009
BECMG 1216/1218 23008KT
PROB30
TEMPO 1217/1220 7000 RA BKN014
ATIS : +44 20 7646 0224



MET'MAP, la Météo Aéronautique d'un coup d'oeil ! - Copyright ORBIFLY Décembre 2007 - Disclaimer

ORBIFLY MET'MAP TEAM :

Programmation & Développement : Alexandra Zaïnal
Sur une idée originale de : Baudouin d'Aumeries
Assistance à la programmation : Marc-Olivier Méhu
Soutien technique & logistique : Manuel Goepfert

Contact : metmap@orbifly.com




SOURCES & CREDITS :

   NOAA